Elk Horn, Kentucky
Current Conditions -  °F | °C
As of 10:15 AM on Saturday 25 Oct 2014 (Local Time) from KDVK Reporting Station
Overcast Overcast  
Wind Chill: 52°   Ceiling: 4400
Heat Index: 52°   Visibility: 10mi
Dew Point: 46°   Wind: 7mph
Humidity: 82%   Direction: 200°SSW
Pressure: 30.07"   Gusts: NA
Location:  37.32°N, 85.29°W
Report Text: KDVK 251415Z AUTO 20006KT 10SM OVC044 11/08 A3007 RMK AO2
Loading
Personal Weather Stations






























Interactive Weather Map
Tropical Storm Tracking
New forecast layout! Learn more

10-Day Weather Forecast

Advertisements
Track Severe Weather on mobile